Time;durP1;ratioP1;P1;durP2;ratioP2;P2;SDS_P1;SDS_P2;PMS_P1;PMS_P2;Temp;Humidity;BMP_temperature;BMP_pressure;BME280_temperature;BME280_humidity;BME280_pressure;Samples;Min_cycle;Max_cycle;Signal;HPM_P1;HPM_P2
2022/03/30 00:00:20;;;;;;;13.40;10.73;;;11.80;99.90;;;;;;1023072;29;20020;-64
2022/03/30 00:00:51;;;;;;;14.93;10.83;;;11.80;99.90;;;;;;1023096;29;20161;-64
2022/03/30 00:01:21;;;;;;;11.03;8.93;;;11.80;99.90;;;;;;1023141;29;20027;-64
2022/03/30 00:01:52;;;;;;;11.97;9.20;;;11.80;99.90;;;;;;1022854;29;20031;-64
2022/03/30 00:02:22;;;;;;;13.90;9.40;;;11.80;99.90;;;;;;1023136;29;20027;-64
2022/03/30 00:02:54;;;;;;;14.07;9.77;;;11.80;99.90;;;;;;1022888;29;20588;-64
2022/03/30 00:03:24;;;;;;;15.10;9.88;;;11.80;99.90;;;;;;1023070;29;20061;-64
2022/03/30 00:03:55;;;;;;;15.00;10.63;;;11.80;99.90;;;;;;1022994;29;20030;-64
2022/03/30 00:04:25;;;;;;;14.83;10.60;;;11.80;99.90;;;;;;1023265;29;20019;-63
2022/03/30 00:04:56;;;;;;;15.50;9.70;;;11.80;99.90;;;;;;1023389;29;20019;-63
2022/03/30 00:05:27;;;;;;;14.83;9.83;;;11.80;99.90;;;;;;1023359;29;20023;-65
2022/03/30 00:05:57;;;;;;;14.97;11.43;;;11.80;99.90;;;;;;1023314;29;20027;-63
2022/03/30 00:06:28;;;;;;;13.77;9.97;;;11.80;99.90;;;;;;1023158;28;20110;-63
2022/03/30 00:06:58;;;;;;;11.53;9.73;;;11.80;99.90;;;;;;1023321;29;20683;-62
2022/03/30 00:07:31;;;;;;;17.07;10.67;;;11.80;99.90;;;;;;1023275;29;20023;-63
2022/03/30 00:08:02;;;;;;;17.95;11.07;;;11.80;99.90;;;;;;1023213;28;20026;-63
2022/03/30 00:08:33;;;;;;;12.60;10.70;;;11.70;99.90;;;;;;1023261;28;20114;-63
2022/03/30 00:09:04;;;;;;;13.93;10.07;;;11.70;99.90;;;;;;1023042;28;20508;-64
2022/03/30 00:09:35;;;;;;;14.60;10.37;;;11.70;99.90;;;;;;1023355;28;20525;-64
2022/03/30 00:10:07;;;;;;;14.13;9.23;;;11.70;99.90;;;;;;1023209;28;20533;-64
2022/03/30 00:10:38;;;;;;;15.60;10.20;;;11.70;99.90;;;;;;1022853;29;20769;-64
2022/03/30 00:11:10;;;;;;;14.43;9.83;;;11.70;99.90;;;;;;1022844;29;20062;-63
2022/03/30 00:11:40;;;;;;;15.52;10.25;;;11.70;99.90;;;;;;1023220;29;20020;-63
2022/03/30 00:12:11;;;;;;;14.37;9.13;;;11.70;99.90;;;;;;1022779;29;20027;-63
2022/03/30 00:12:41;;;;;;;15.77;9.47;;;11.70;99.90;;;;;;1023437;29;20034;-63
2022/03/30 00:13:12;;;;;;;14.60;9.63;;;11.70;99.90;;;;;;1023156;29;20027;-63
2022/03/30 00:13:42;;;;;;;12.33;9.33;;;11.70;99.90;;;;;;1023482;29;20039;-64
2022/03/30 00:14:13;;;;;;;12.50;9.80;;;11.70;99.90;;;;;;1023132;28;20552;-63
2022/03/30 00:14:43;;;;;;;14.23;10.13;;;11.70;99.90;;;;;;1023449;29;20023;-66
2022/03/30 00:15:15;;;;;;;15.13;10.13;;;11.70;99.90;;;;;;1023282;28;20109;-64
2022/03/30 00:15:46;;;;;;;15.00;9.65;;;11.60;99.90;;;;;;1023496;28;20027;-63
2022/03/30 00:16:17;;;;;;;14.07;9.20;;;11.70;99.90;;;;;;1023216;28;20031;-64
2022/03/30 00:16:48;;;;;;;13.13;10.10;;;11.70;99.90;;;;;;1023557;29;20019;-64
2022/03/30 00:17:18;;;;;;;14.53;10.63;;;11.70;99.90;;;;;;1023307;28;20098;-64
2022/03/30 00:17:49;;;;;;;14.63;9.63;;;11.70;99.90;;;;;;1023245;28;20030;-64
2022/03/30 00:18:20;;;;;;;16.07;9.87;;;11.70;99.90;;;;;;1023237;29;20019;-64
2022/03/30 00:18:50;;;;;;;14.60;9.93;;;11.70;99.90;;;;;;1023555;29;20027;-64
2022/03/30 00:19:21;;;;;;;13.83;10.30;;;11.60;99.90;;;;;;1026824;28;20025;-65
2022/03/30 00:19:52;;;;;;;16.20;9.57;;;11.60;99.90;;;;;;1027041;28;20106;-66
2022/03/30 00:20:22;;;;;;;13.00;9.77;;;11.60;99.90;;;;;;1026990;28;20557;-66
2022/03/30 00:20:53;;;;;;;13.23;10.23;;;11.60;99.90;;;;;;1026934;28;20019;-64
2022/03/30 00:21:23;;;;;;;18.30;10.37;;;11.60;99.90;;;;;;1026799;28;20113;-65
2022/03/30 00:21:54;;;;;;;15.10;10.73;;;11.60;99.90;;;;;;1027030;28;20580;-65
2022/03/30 00:22:24;;;;;;;11.53;8.80;;;11.60;99.90;;;;;;1022805;29;20510;-65
2022/03/30 00:22:55;;;;;;;12.57;8.83;;;11.60;99.90;;;;;;1019056;29;20805;-65
2022/03/30 00:23:26;;;;;;;13.53;9.53;;;11.60;99.90;;;;;;1019080;29;20051;-65
2022/03/30 00:23:56;;;;;;;15.13;10.33;;;11.60;99.90;;;;;;1019020;29;20697;-62
2022/03/30 00:24:28;;;;;;;13.13;9.47;;;11.60;99.90;;;;;;1022415;29;20046;-64
2022/03/30 00:24:58;;;;;;;17.50;10.55;;;11.60;99.90;;;;;;1023474;28;20077;-64
2022/03/30 00:25:29;;;;;;;13.53;11.00;;;11.60;99.90;;;;;;1023263;28;20087;-65
2022/03/30 00:25:59;;;;;;;12.23;9.30;;;11.60;99.90;;;;;;1023339;28;20075;-63
2022/03/30 00:26:30;;;;;;;15.93;10.53;;;11.60;99.90;;;;;;1023265;29;20031;-64
2022/03/30 00:27:02;;;;;;;15.67;9.80;;;11.60;99.90;;;;;;1023345;28;20035;-64
2022/03/30 00:27:32;;;;;;;17.08;10.80;;;11.60;99.90;;;;;;1023296;28;20549;-64
2022/03/30 00:28:04;;;;;;;14.23;9.97;;;11.60;99.90;;;;;;1022789;29;20819;-65
2022/03/30 00:28:34;;;;;;;17.02;10.13;;;11.60;99.90;;;;;;1018978;29;20119;-65
2022/03/30 00:29:06;;;;;;;16.03;8.73;;;11.60;99.90;;;;;;1018952;29;20024;-65
2022/03/30 00:29:37;;;;;;;12.55;9.80;;;11.50;99.90;;;;;;1019405;29;20023;-63
2022/03/30 00:30:08;;;;;;;16.27;11.13;;;11.60;99.90;;;;;;1022753;29;20027;-63
2022/03/30 00:30:39;;;;;;;15.88;10.85;;;11.60;99.90;;;;;;1023595;28;20110;-64
2022/03/30 00:31:11;;;;;;;12.23;9.77;;;11.60;99.90;;;;;;1022932;28;20027;-64
2022/03/30 00:31:42;;;;;;;12.50;10.20;;;11.50;99.90;;;;;;1022389;28;20016;-64
2022/03/30 00:32:12;;;;;;;17.80;9.87;;;11.60;99.90;;;;;;1019240;28;20102;-63
2022/03/30 00:32:43;;;;;;;15.40;10.10;;;11.50;99.90;;;;;;1023273;28;20091;-64
2022/03/30 00:33:14;;;;;;;14.75;9.82;;;11.60;99.90;;;;;;1023064;29;20019;-64
2022/03/30 00:33:46;;;;;;;16.10;11.90;;;11.60;99.90;;;;;;1023450;28;20098;-64
2022/03/30 00:34:16;;;;;;;13.98;9.82;;;11.50;99.90;;;;;;1023242;29;20011;-64
2022/03/30 00:34:47;;;;;;;16.33;9.67;;;11.50;99.90;;;;;;1023440;28;20126;-64
2022/03/30 00:35:18;;;;;;;13.00;9.03;;;11.50;99.90;;;;;;1023134;28;20023;-64
2022/03/30 00:35:48;;;;;;;16.40;10.90;;;11.50;99.90;;;;;;1023289;29;20418;-64
2022/03/30 00:36:19;;;;;;;14.40;10.27;;;11.50;99.90;;;;;;1022833;29;20019;-64
2022/03/30 00:36:50;;;;;;;15.73;10.60;;;11.50;99.90;;;;;;1023007;29;20106;-64
2022/03/30 00:37:20;;;;;;;17.57;10.23;;;11.50;99.90;;;;;;1022764;29;20089;-64
2022/03/30 00:37:51;;;;;;;12.33;9.67;;;11.50;99.90;;;;;;1023000;29;20020;-64
2022/03/30 00:38:21;;;;;;;15.20;10.17;;;11.50;99.90;;;;;;1023184;29;20499;-63
2022/03/30 00:38:52;;;;;;;13.43;9.23;;;11.50;99.90;;;;;;1023269;29;20722;-63
2022/03/30 00:39:22;;;;;;;16.90;10.87;;;11.50;99.90;;;;;;1022997;29;20030;-64
2022/03/30 00:39:53;;;;;;;9.50;7.93;;;11.50;99.90;;;;;;1023365;29;20039;-64
2022/03/30 00:40:24;;;;;;;17.00;9.90;;;11.50;99.90;;;;;;1023193;29;20026;-63
2022/03/30 00:40:55;;;;;;;12.20;9.07;;;11.50;99.90;;;;;;1023300;29;20263;-64
2022/03/30 00:41:28;;;;;;;13.30;9.75;;;11.50;99.90;;;;;;1023099;29;20019;-65
2022/03/30 00:41:58;;;;;;;15.70;10.18;;;11.50;99.90;;;;;;1023279;29;20023;-65
2022/03/30 00:42:29;;;;;;;14.83;9.03;;;11.50;99.90;;;;;;1023127;29;20011;-63
2022/03/30 00:43:00;;;;;;;11.50;9.07;;;11.50;99.90;;;;;;1023461;29;20099;-65
2022/03/30 00:43:30;;;;;;;16.07;9.73;;;11.50;99.90;;;;;;1023052;29;20410;-66
2022/03/30 00:44:13;;;;;;;17.40;10.70;;;11.50;99.90;;;;;;1023396;29;20046;-64
2022/03/30 00:44:44;;;;;;;13.40;9.15;;;11.50;99.90;;;;;;1023250;29;20019;-65
2022/03/30 00:45:21;;;;;;;13.85;9.25;;;11.50;99.90;;;;;;1023110;29;20066;-65
2022/03/30 00:45:51;;;;;;;17.95;10.38;;;11.50;99.90;;;;;;1023198;29;20023;-64
2022/03/30 00:46:22;;;;;;;15.07;9.63;;;11.40;99.90;;;;;;1023144;29;20114;-63
2022/03/30 00:46:53;;;;;;;13.23;9.50;;;11.40;99.90;;;;;;1023056;29;20474;-64
2022/03/30 00:47:26;;;;;;;13.53;10.23;;;11.40;99.90;;;;;;1023500;29;20911;-63
2022/03/30 00:47:57;;;;;;;13.63;8.88;;;11.40;99.90;;;;;;1023183;29;20027;-66
2022/03/30 00:48:27;;;;;;;14.50;10.17;;;11.40;99.90;;;;;;1023163;29;20023;-65
2022/03/30 00:48:58;;;;;;;14.03;10.07;;;11.40;99.90;;;;;;1023158;29;20467;-65
2022/03/30 00:49:28;;;;;;;14.73;10.50;;;11.40;99.90;;;;;;1023192;29;20148;-65
2022/03/30 00:49:59;;;;;;;14.70;10.30;;;11.40;99.90;;;;;;1022879;29;20090;-65
2022/03/30 00:50:29;;;;;;;15.30;9.80;;;11.40;99.90;;;;;;1022869;29;20074;-65
2022/03/30 00:51:00;;;;;;;21.70;9.60;;;11.30;99.90;;;;;;1022716;29;20490;-65
2022/03/30 00:51:31;;;;;;;17.60;9.07;;;11.30;99.90;;;;;;1022817;29;20031;-65
2022/03/30 00:52:02;;;;;;;15.65;10.05;;;11.30;99.90;;;;;;1023294;29;20110;-65
2022/03/30 00:52:33;;;;;;;14.57;10.17;;;11.40;99.90;;;;;;1023192;29;20034;-63
2022/03/30 00:53:03;;;;;;;16.27;10.77;;;11.30;99.90;;;;;;1023272;29;20039;-64
2022/03/30 00:53:34;;;;;;;12.77;8.93;;;11.30;99.90;;;;;;1023932;28;20020;-65
2022/03/30 00:54:05;;;;;;;17.17;10.13;;;11.30;99.90;;;;;;1026515;28;20022;-65
2022/03/30 00:54:37;;;;;;;13.13;9.45;;;11.30;99.90;;;;;;1023297;28;20106;-65
2022/03/30 00:55:09;;;;;;;16.20;9.55;;;11.30;99.90;;;;;;1023261;28;20478;-65
2022/03/30 00:55:39;;;;;;;14.82;9.68;;;11.30;99.90;;;;;;1023320;29;20054;-65
2022/03/30 00:56:10;;;;;;;17.77;9.73;;;11.30;99.90;;;;;;1023051;29;20038;-64
2022/03/30 00:56:43;;;;;;;12.70;8.90;;;11.30;99.90;;;;;;1022689;28;20132;-64
2022/03/30 00:57:15;;;;;;;15.55;10.77;;;11.30;99.90;;;;;;1022663;28;20022;-64
2022/03/30 00:57:47;;;;;;;14.38;10.27;;;11.30;99.90;;;;;;1023277;28;20020;-64
2022/03/30 00:58:18;;;;;;;14.18;10.48;;;11.30;99.90;;;;;;1023042;28;20023;-65
2022/03/30 00:58:49;;;;;;;14.53;9.60;;;11.30;99.90;;;;;;1023294;28;20027;-63
2022/03/30 00:59:20;;;;;;;13.75;9.48;;;11.30;99.90;;;;;;1023165;29;20041;-66
2022/03/30 00:59:51;;;;;;;12.70;9.20;;;11.30;99.90;;;;;;1023143;29;20035;-63
2022/03/30 01:00:22;;;;;;;15.27;9.00;;;11.30;99.90;;;;;;1023108;28;20027;-66
2022/03/30 01:00:53;;;;;;;12.97;9.70;;;11.30;99.90;;;;;;1023355;29;20035;-64
2022/03/30 01:01:24;;;;;;;13.20;10.17;;;11.30;99.90;;;;;;1023045;29;20270;-64
2022/03/30 01:01:55;;;;;;;14.05;9.75;;;;;;;;;;1023337;28;20263;-64
2022/03/30 01:02:26;;;;;;;14.75;10.52;;;11.30;99.90;;;;;;1022854;29;20026;-65
2022/03/30 01:02:56;;;;;;;11.43;9.50;;;11.30;99.90;;;;;;1026788;28;20027;-64
2022/03/30 01:03:27;;;;;;;14.27;10.03;;;11.30;99.90;;;;;;1026669;28;20647;-65
2022/03/30 01:03:58;;;;;;;14.60;9.90;;;11.30;99.90;;;;;;1026778;28;20026;-64
2022/03/30 01:04:31;;;;;;;11.80;9.07;;;11.30;99.90;;;;;;1022753;29;20038;-64
2022/03/30 01:05:01;;;;;;;15.48;10.35;;;11.20;99.90;;;;;;1022873;29;20495;-63
2022/03/30 01:05:32;;;;;;;14.63;9.57;;;11.20;99.90;;;;;;1022847;29;20114;-63
2022/03/30 01:06:03;;;;;;;14.50;9.73;;;11.20;99.90;;;;;;1022834;29;20102;-65
2022/03/30 01:06:33;;;;;;;14.93;9.87;;;11.20;99.90;;;;;;1023266;29;20834;-65
2022/03/30 01:07:04;;;;;;;12.60;9.90;;;11.30;99.90;;;;;;1023126;29;20475;-65
2022/03/30 01:07:34;;;;;;;14.10;9.88;;;11.20;99.90;;;;;;1023262;29;20632;-63
2022/03/30 01:08:05;;;;;;;13.63;10.37;;;11.20;99.90;;;;;;1023065;29;20134;-65
2022/03/30 01:08:36;;;;;;;18.93;9.07;;;11.20;99.90;;;;;;1023242;29;20031;-64
2022/03/30 01:09:06;;;;;;;12.30;9.57;;;11.20;99.90;;;;;;1023004;29;20027;-64
2022/03/30 01:09:37;;;;;;;12.07;9.60;;;11.20;99.90;;;;;;1023238;29;20046;-65
2022/03/30 01:10:09;;;;;;;17.57;10.93;;;11.20;99.90;;;;;;1022794;29;20031;-64
2022/03/30 01:10:41;;;;;;;14.82;10.50;;;11.20;99.90;;;;;;1022534;29;20049;-65
2022/03/30 01:11:12;;;;;;;14.60;9.68;;;11.20;99.90;;;;;;1022446;29;20034;-65
2022/03/30 01:11:43;;;;;;;13.67;9.70;;;11.20;99.90;;;;;;1022942;29;20034;-65
2022/03/30 01:12:14;;;;;;;14.57;10.38;;;11.20;99.90;;;;;;1022563;29;20514;-65
2022/03/30 01:12:46;;;;;;;18.63;10.60;;;11.20;99.90;;;;;;1023166;29;20589;-64
2022/03/30 01:13:17;;;;;;;18.73;9.20;;;11.20;99.90;;;;;;1023032;29;20606;-65
2022/03/30 01:13:48;;;;;;;11.55;9.48;;;11.20;99.90;;;;;;1023128;29;20481;-65
2022/03/30 01:14:19;;;;;;;12.30;8.90;;;11.20;99.90;;;;;;1023046;29;20074;-65
2022/03/30 01:14:50;;;;;;;16.30;10.15;;;11.20;99.90;;;;;;1023178;29;20051;-65
2022/03/30 01:15:22;;;;;;;12.40;9.23;;;11.20;99.90;;;;;;1022692;29;20430;-65
2022/03/30 01:15:53;;;;;;;16.17;9.77;;;11.20;99.90;;;;;;1022915;29;20027;-65
2022/03/30 01:16:23;;;;;;;13.30;10.20;;;11.20;99.90;;;;;;1022671;29;20037;-65
2022/03/30 01:16:54;;;;;;;11.73;8.77;;;11.20;99.90;;;;;;1022874;29;20102;-64
2022/03/30 01:17:25;;;;;;;17.67;10.37;;;11.20;99.90;;;;;;1022588;29;20087;-64
2022/03/30 01:17:56;;;;;;;13.27;9.50;;;11.20;99.90;;;;;;1023018;29;20146;-64
2022/03/30 01:18:26;;;;;;;13.40;9.35;;;11.20;99.90;;;;;;1022605;29;20209;-64
2022/03/30 01:19:09;;;;;;;10.93;8.70;;;11.20;99.90;;;;;;1023210;29;20030;-64
2022/03/30 01:19:40;;;;;;;15.02;8.48;;;11.10;99.90;;;;;;1026557;28;20053;-66
2022/03/30 01:20:12;;;;;;;11.50;8.90;;;11.20;99.90;;;;;;1026775;28;20587;-64
2022/03/30 01:20:47;;;;;;;15.68;9.38;;;11.20;99.90;;;;;;1026355;28;20015;-66
2022/03/30 01:21:18;;;;;;;12.90;9.02;;;11.20;99.90;;;;;;1025823;28;20490;-66
2022/03/30 01:21:49;;;;;;;12.50;9.27;;;11.10;99.90;;;;;;1023040;28;20514;-65
2022/03/30 01:22:19;;;;;;;13.53;9.27;;;11.10;99.90;;;;;;1023072;29;20027;-65
2022/03/30 01:22:50;;;;;;;14.93;9.07;;;11.10;99.90;;;;;;1023021;29;20038;-65
2022/03/30 01:23:21;;;;;;;14.05;9.52;;;11.10;99.90;;;;;;1023144;28;20033;-65
2022/03/30 01:23:51;;;;;;;13.07;9.47;;;11.10;99.90;;;;;;1022881;29;20027;-65
2022/03/30 01:24:22;;;;;;;15.00;8.83;;;11.10;99.90;;;;;;1022827;29;20749;-65
2022/03/30 01:24:53;;;;;;;14.40;9.83;;;11.10;99.90;;;;;;1022976;29;20130;-65
2022/03/30 01:25:23;;;;;;;12.17;9.93;;;11.10;99.90;;;;;;1022725;29;20122;-65
2022/03/30 01:25:54;;;;;;;17.47;10.93;;;11.10;99.90;;;;;;1022739;29;20596;-65
2022/03/30 01:26:25;;;;;;;14.90;9.83;;;11.10;99.90;;;;;;1022690;29;20073;-65
2022/03/30 01:26:55;;;;;;;14.57;10.13;;;11.00;99.90;;;;;;1022721;29;20030;-65
2022/03/30 01:27:26;;;;;;;12.70;9.13;;;11.00;99.90;;;;;;1022984;29;20117;-65
2022/03/30 01:27:58;;;;;;;14.37;9.33;;;11.00;99.90;;;;;;1022109;28;20027;-65
2022/03/30 01:28:31;;;;;;;14.45;9.35;;;11.00;99.90;;;;;;1016409;28;20038;-65
2022/03/30 01:32:25;;;;;;;13.88;9.82;;;11.00;99.90;;;;;;1018773;29;20028;-65
2022/03/30 01:32:26;;;;;;;13.88;8.60;;;10.90;99.90;;;;;;1019277;29;20035;-63
2022/03/30 01:32:57;;;;;;;14.43;9.75;;;10.90;99.90;;;;;;1019343;29;20024;-64
2022/03/30 01:33:28;;;;;;;16.20;9.70;;;10.90;99.90;;;;;;1019078;29;20032;-63
2022/03/30 01:33:58;;;;;;;17.10;9.90;;;10.90;99.90;;;;;;1019240;29;20172;-64
2022/03/30 01:34:29;;;;;;;12.93;9.53;;;10.90;99.90;;;;;;1019119;29;20035;-64
2022/03/30 01:35:01;;;;;;;13.20;10.20;;;10.90;99.90;;;;;;1022753;29;20043;-66
2022/03/30 01:35:33;;;;;;;12.05;9.60;;;10.90;99.90;;;;;;1022614;29;20028;-64
2022/03/30 01:36:04;;;;;;;16.33;10.07;;;10.90;99.90;;;;;;1022562;29;20024;-64
2022/03/30 01:36:38;;;;;;;14.70;10.20;;;10.90;99.90;;;;;;1022354;29;20617;-65
2022/03/30 01:37:10;;;;;;;16.30;10.30;;;10.90;99.90;;;;;;1019042;29;20746;-63
2022/03/30 01:37:41;;;;;;;15.63;10.30;;;10.90;99.90;;;;;;1019181;29;20055;-63
2022/03/30 01:38:12;;;;;;;12.47;9.83;;;10.90;99.90;;;;;;1019008;29;20024;-65
2022/03/30 01:38:43;;;;;;;12.37;8.77;;;10.90;99.90;;;;;;1019221;29;20063;-63
2022/03/30 01:39:13;;;;;;;17.13;10.07;;;10.90;99.90;;;;;;1018419;29;20034;-63
2022/03/30 01:39:44;;;;;;;14.17;10.47;;;10.90;99.90;;;;;;1018631;29;20052;-66
2022/03/30 01:40:15;;;;;;;14.10;9.90;;;10.90;99.90;;;;;;1014973;29;20044;-65
2022/03/30 01:40:45;;;;;;;15.97;9.93;;;10.90;99.90;;;;;;1014889;29;20017;-64
2022/03/30 01:41:16;;;;;;;13.20;10.10;;;10.90;99.90;;;;;;1018878;29;20298;-65
2022/03/30 01:41:46;;;;;;;13.43;9.83;;;10.90;99.90;;;;;;1018631;29;20424;-65
2022/03/30 01:42:17;;;;;;;15.53;10.97;;;10.90;99.90;;;;;;1019156;29;20535;-64
2022/03/30 01:42:48;;;;;;;14.70;10.13;;;10.90;99.90;;;;;;1019119;29;20026;-64
2022/03/30 01:43:18;;;;;;;15.40;9.77;;;10.90;99.90;;;;;;1019186;29;20110;-63
2022/03/30 01:43:49;;;;;;;18.17;10.50;;;10.90;99.90;;;;;;1018846;29;20022;-64
2022/03/30 01:44:20;;;;;;;18.80;11.07;;;10.90;99.90;;;;;;1023116;29;20098;-65
2022/03/30 01:44:51;;;;;;;15.57;10.03;;;10.90;99.90;;;;;;1022837;29;20046;-65
2022/03/30 01:45:22;;;;;;;15.27;9.95;;;10.90;99.90;;;;;;1022987;29;20189;-65
2022/03/30 01:45:52;;;;;;;15.57;10.83;;;10.90;99.90;;;;;;1022564;29;20087;-65
2022/03/30 01:46:23;;;;;;;16.60;10.27;;;10.90;99.90;;;;;;1022546;29;20047;-64
2022/03/30 01:46:54;;;;;;;15.75;11.10;;;10.80;99.90;;;;;;1022218;29;20391;-63
2022/03/30 01:47:24;;;;;;;11.50;9.23;;;10.90;99.90;;;;;;1022597;29;20459;-64
2022/03/30 01:47:58;;;;;;;14.13;10.33;;;10.80;99.90;;;;;;1023108;28;20542;-64
2022/03/30 01:48:28;;;;;;;14.57;10.30;;;10.80;99.90;;;;;;1023066;29;20027;-63
2022/03/30 01:48:59;;;;;;;17.30;11.00;;;10.80;99.90;;;;;;1022493;29;20026;-63
2022/03/30 01:49:29;;;;;;;15.00;10.07;;;10.80;99.90;;;;;;1022658;29;20514;-65
2022/03/30 01:50:00;;;;;;;16.10;10.10;;;10.80;99.90;;;;;;1022763;29;20090;-63
2022/03/30 01:50:32;;;;;;;15.50;10.70;;;10.80;99.90;;;;;;1022585;29;20517;-63
2022/03/30 01:51:02;;;;;;;17.25;10.15;;;10.80;99.90;;;;;;1022365;29;20111;-63
2022/03/30 01:51:33;;;;;;;16.50;10.07;;;10.80;99.90;;;;;;1022426;29;20097;-63
2022/03/30 01:52:04;;;;;;;16.00;10.57;;;10.80;99.90;;;;;;1022360;29;20102;-65
2022/03/30 01:52:35;;;;;;;14.88;10.98;;;10.80;99.90;;;;;;1022640;29;20097;-64
2022/03/30 01:53:05;;;;;;;12.27;10.03;;;10.80;99.90;;;;;;1022515;29;20051;-64
2022/03/30 01:53:36;;;;;;;16.57;10.80;;;10.80;99.90;;;;;;1023024;29;20158;-65
2022/03/30 01:54:06;;;;;;;14.30;10.07;;;10.80;99.90;;;;;;1022633;29;20024;-65
2022/03/30 01:54:39;;;;;;;15.30;10.23;;;10.80;99.90;;;;;;1023117;28;20012;-66
2022/03/30 01:55:09;;;;;;;14.43;10.10;;;10.80;99.90;;;;;;1022823;28;20031;-65
2022/03/30 01:55:40;;;;;;;12.07;9.20;;;10.80;99.90;;;;;;1023115;28;20019;-64
2022/03/30 01:56:11;;;;;;;15.25;10.32;;;10.80;99.90;;;;;;1022941;29;20042;-64
2022/03/30 01:56:41;;;;;;;15.30;10.57;;;10.80;99.90;;;;;;1023147;28;20442;-63
2022/03/30 01:57:13;;;;;;;14.33;9.83;;;10.80;99.90;;;;;;1022927;28;20016;-64
2022/03/30 01:57:45;;;;;;;13.10;8.88;;;10.80;99.90;;;;;;1023090;28;20019;-65
2022/03/30 01:58:17;;;;;;;16.63;9.52;;;10.80;99.90;;;;;;1022872;29;20381;-63
2022/03/30 01:58:48;;;;;;;15.88;9.93;;;10.80;99.90;;;;;;1022589;29;20015;-64
2022/03/30 01:59:19;;;;;;;15.60;10.73;;;10.80;99.90;;;;;;1022692;29;20015;-65
2022/03/30 01:59:50;;;;;;;13.23;9.80;;;10.80;99.90;;;;;;1022572;29;20027;-64
2022/03/30 02:00:24;;;;;;;14.67;9.67;;;10.80;99.90;;;;;;1022921;28;20060;-64
2022/03/30 02:00:54;;;;;;;16.88;10.55;;;10.80;99.90;;;;;;1026645;28;20265;-64
2022/03/30 02:01:26;;;;;;;14.83;10.23;;;10.80;99.90;;;;;;1022452;29;20023;-66
2022/03/30 02:01:56;;;;;;;14.07;10.20;;;10.80;99.90;;;;;;1022714;29;20531;-65
2022/03/30 02:02:27;;;;;;;17.37;9.70;;;10.80;99.90;;;;;;1022486;29;20607;-64
2022/03/30 02:02:58;;;;;;;13.85;9.75;;;10.70;99.90;;;;;;1022534;29;20106;-64
2022/03/30 02:03:29;;;;;;;15.90;9.87;;;10.70;99.90;;;;;;1022413;29;20034;-66
2022/03/30 02:04:00;;;;;;;11.07;9.60;;;10.70;99.90;;;;;;1022653;29;20085;-65
2022/03/30 02:04:31;;;;;;;15.20;9.80;;;10.70;99.90;;;;;;1022511;29;20027;-64
2022/03/30 02:05:02;;;;;;;11.93;9.60;;;10.70;99.90;;;;;;1022766;29;20114;-65
2022/03/30 02:05:32;;;;;;;15.23;10.67;;;10.70;99.90;;;;;;1022633;29;20532;-64
2022/03/30 02:06:03;;;;;;;13.83;10.13;;;10.70;99.90;;;;;;1023024;28;20034;-65
2022/03/30 02:06:34;;;;;;;15.63;10.63;;;10.70;99.90;;;;;;1022933;28;20027;-66
2022/03/30 02:07:08;;;;;;;15.32;10.18;;;10.70;99.90;;;;;;1023000;28;20613;-65
2022/03/30 02:07:39;;;;;;;16.10;10.10;;;10.70;99.90;;;;;;1022901;28;20042;-65
2022/03/30 02:08:10;;;;;;;14.05;9.90;;;10.70;99.90;;;;;;1022650;28;20019;-66
2022/03/30 02:08:41;;;;;;;14.53;9.70;;;10.60;99.90;;;;;;1023060;29;20717;-66
2022/03/30 02:09:14;;;;;;;15.18;9.65;;;10.60;99.90;;;;;;1026243;28;20019;-63
2022/03/30 02:09:44;;;;;;;12.77;9.95;;;10.60;99.90;;;;;;1026503;28;20042;-66
2022/03/30 02:10:15;;;;;;;13.67;10.23;;;10.60;99.90;;;;;;1026513;28;20089;-65
2022/03/30 02:10:46;;;;;;;11.37;9.37;;;10.60;99.90;;;;;;1026250;28;20388;-65
2022/03/30 02:11:17;;;;;;;16.20;9.90;;;10.60;99.90;;;;;;1022912;28;20061;-66
2022/03/30 02:11:49;;;;;;;13.87;9.87;;;10.60;99.90;;;;;;1022730;29;20019;-64
2022/03/30 02:12:20;;;;;;;15.07;10.07;;;10.60;99.90;;;;;;1020272;28;20016;-64
2022/03/30 02:12:51;;;;;;;13.77;10.03;;;10.60;99.90;;;;;;1022562;29;20019;-67
2022/03/30 02:13:21;;;;;;;14.50;9.47;;;10.60;99.90;;;;;;1022456;29;20102;-65
2022/03/30 02:13:52;;;;;;;13.87;9.83;;;10.60;99.90;;;;;;1022587;29;20023;-66
2022/03/30 02:14:23;;;;;;;15.00;10.45;;;10.60;99.90;;;;;;1022171;29;20027;-65
2022/03/30 02:14:54;;;;;;;13.23;10.00;;;10.60;99.90;;;;;;1018937;29;20121;-65
2022/03/30 02:15:25;;;;;;;15.30;10.20;;;10.60;99.90;;;;;;1018698;29;20597;-65
2022/03/30 02:15:55;;;;;;;13.00;9.52;;;10.50;99.90;;;;;;1018960;29;20016;-65
2022/03/30 02:16:27;;;;;;;14.67;9.97;;;10.50;99.90;;;;;;1018776;29;20021;-64
2022/03/30 02:16:57;;;;;;;14.50;9.75;;;10.50;99.90;;;;;;1021668;29;20031;-64
2022/03/30 02:17:29;;;;;;;18.73;9.90;;;10.50;99.90;;;;;;1022562;29;20027;-64
2022/03/30 02:17:59;;;;;;;14.38;10.05;;;10.50;99.90;;;;;;1022991;28;20463;-64
2022/03/30 02:18:30;;;;;;;14.40;10.10;;;10.50;99.90;;;;;;1022723;28;20679;-64
2022/03/30 02:19:01;;;;;;;14.30;10.10;;;10.50;99.90;;;;;;1022964;28;20506;-64
2022/03/30 02:19:31;;;;;;;15.23;10.70;;;10.50;99.90;;;;;;1022684;28;20078;-65
2022/03/30 02:20:02;;;;;;;12.50;9.63;;;10.50;99.90;;;;;;1023088;28;20387;-65
2022/03/30 02:20:33;;;;;;;16.75;10.48;;;10.50;99.90;;;;;;1022672;29;20102;-64
2022/03/30 02:21:04;;;;;;;14.13;10.13;;;10.50;99.90;;;;;;1022868;28;20026;-65
2022/03/30 02:21:34;;;;;;;12.13;9.83;;;10.50;99.90;;;;;;1022712;28;20297;-64
2022/03/30 02:22:05;;;;;;;13.93;10.00;;;10.50;99.90;;;;;;1023017;29;20078;-64
2022/03/30 02:22:36;;;;;;;14.77;10.57;;;10.50;99.90;;;;;;1022758;28;20114;-65
2022/03/30 02:23:06;;;;;;;12.10;9.93;;;10.40;99.90;;;;;;1026546;28;20745;-65
2022/03/30 02:23:38;;;;;;;14.93;10.63;;;10.50;99.90;;;;;;1026352;28;20026;-65
2022/03/30 02:24:08;;;;;;;13.68;10.00;;;10.40;99.90;;;;;;1026383;28;20054;-65
2022/03/30 02:24:39;;;;;;;15.77;10.43;;;10.40;99.90;;;;;;1022129;28;20023;-65
2022/03/30 02:25:10;;;;;;;12.73;10.00;;;10.40;99.90;;;;;;1022509;28;20671;-65
2022/03/30 02:25:40;;;;;;;13.37;9.97;;;10.40;99.90;;;;;;1022778;29;20019;-65
2022/03/30 02:26:12;;;;;;;15.83;11.33;;;10.40;99.90;;;;;;1022411;29;20015;-64
2022/03/30 02:26:43;;;;;;;10.73;8.77;;;10.40;99.90;;;;;;1018402;29;20075;-63
2022/03/30 02:27:13;;;;;;;14.30;11.07;;;10.40;99.90;;;;;;1018620;29;20031;-65
2022/03/30 02:27:44;;;;;;;14.10;10.67;;;10.50;99.90;;;;;;1018715;29;20050;-66
2022/03/30 02:28:15;;;;;;;14.43;10.87;;;10.40;99.90;;;;;;1022471;29;20023;-65
2022/03/30 02:28:54;;;;;;;12.80;9.43;;;10.40;99.90;;;;;;1022720;29;20840;-64
2022/03/30 02:29:24;;;;;;;14.00;10.32;;;10.40;99.90;;;;;;1022873;29;20050;-64
2022/03/30 02:29:55;;;;;;;11.40;9.70;;;10.40;99.90;;;;;;1022735;29;20046;-65
2022/03/30 02:30:25;;;;;;;14.00;9.63;;;10.40;99.90;;;;;;1022904;29;20015;-65
2022/03/30 02:30:56;;;;;;;14.23;10.33;;;10.40;99.90;;;;;;1022808;29;20027;-66
2022/03/30 02:31:26;;;;;;;14.00;9.73;;;10.50;99.90;;;;;;1022358;29;20675;-65
2022/03/30 02:31:59;;;;;;;13.67;10.97;;;10.40;99.90;;;;;;1022324;29;20027;-65
2022/03/30 02:32:30;;;;;;;15.98;10.65;;;10.40;99.90;;;;;;1022424;29;20121;-66
2022/03/30 02:33:01;;;;;;;12.37;10.13;;;10.40;99.90;;;;;;1022424;29;20146;-65
2022/03/30 02:33:32;;;;;;;14.88;10.43;;;10.40;99.90;;;;;;1022666;29;20027;-65
2022/03/30 02:34:03;;;;;;;14.70;9.93;;;10.40;99.90;;;;;;1022829;29;20140;-65
2022/03/30 02:34:33;;;;;;;15.20;11.23;;;10.40;99.90;;;;;;1022566;29;20122;-65
2022/03/30 02:35:04;;;;;;;10.93;9.50;;;10.40;99.90;;;;;;1022424;29;20671;-66
2022/03/30 02:35:35;;;;;;;13.52;10.60;;;10.40;99.90;;;;;;1022598;29;20435;-64
2022/03/30 02:36:05;;;;;;;13.07;10.40;;;10.40;99.90;;;;;;1022401;29;20022;-65
2022/03/30 02:36:36;;;;;;;12.83;10.57;;;10.40;99.90;;;;;;1022646;29;20459;-65
2022/03/30 02:37:08;;;;;;;15.47;10.87;;;10.40;99.90;;;;;;1022453;29;20031;-65
2022/03/30 02:37:38;;;;;;;13.20;9.38;;;10.40;99.90;;;;;;1022859;29;20056;-64
2022/03/30 02:38:09;;;;;;;14.83;10.50;;;10.40;99.90;;;;;;1022332;29;20033;-65
2022/03/30 02:38:41;;;;;;;14.50;10.53;;;10.40;99.90;;;;;;1022715;29;20035;-66
2022/03/30 02:39:12;;;;;;;15.15;11.38;;;10.40;99.90;;;;;;1022055;29;20027;-66
2022/03/30 02:39:42;;;;;;;14.82;10.75;;;10.30;99.90;;;;;;1022433;29;20518;-66
2022/03/30 02:40:13;;;;;;;18.50;11.30;;;10.30;99.90;;;;;;1022310;29;20015;-66
2022/03/30 02:40:44;;;;;;;14.90;8.90;;;10.30;99.90;;;;;;1022403;29;20106;-66
2022/03/30 02:41:14;;;;;;;15.50;10.33;;;10.30;99.90;;;;;;1022639;29;20091;-66
2022/03/30 02:41:46;;;;;;;14.43;10.87;;;10.30;99.90;;;;;;1022760;28;20026;-65